sensor_id;sensor_type;location;lat;lon;timestamp;P1;durP1;ratioP1;P2;durP2;ratioP2
18748;SDS011;9503;53.560;10.246;2022-12-04T00:02:22;65.27;;;25.87;;
18748;SDS011;9503;53.560;10.246;2022-12-04T00:04:48;66.23;;;26.17;;
18748;SDS011;9503;53.560;10.246;2022-12-04T00:07:15;64.70;;;24.70;;
18748;SDS011;9503;53.560;10.246;2022-12-04T00:09:42;67.03;;;26.00;;
18748;SDS011;9503;53.560;10.246;2022-12-04T00:12:09;68.53;;;25.83;;
18748;SDS011;9503;53.560;10.246;2022-12-04T00:14:36;59.20;;;24.33;;
18748;SDS011;9503;53.560;10.246;2022-12-04T00:17:02;63.60;;;24.00;;
18748;SDS011;9503;53.560;10.246;2022-12-04T00:19:30;62.40;;;24.80;;
18748;SDS011;9503;53.560;10.246;2022-12-04T00:21:57;62.70;;;23.83;;
18748;SDS011;9503;53.560;10.246;2022-12-04T00:24:24;61.40;;;24.27;;
18748;SDS011;9503;53.560;10.246;2022-12-04T00:26:50;56.97;;;23.97;;
18748;SDS011;9503;53.560;10.246;2022-12-04T00:29:17;61.80;;;24.47;;
18748;SDS011;9503;53.560;10.246;2022-12-04T00:31:44;56.97;;;23.37;;
18748;SDS011;9503;53.560;10.246;2022-12-04T00:34:11;58.93;;;24.70;;
18748;SDS011;9503;53.560;10.246;2022-12-04T00:36:39;58.47;;;23.67;;
18748;SDS011;9503;53.560;10.246;2022-12-04T00:39:05;56.00;;;24.50;;
18748;SDS011;9503;53.560;10.246;2022-12-04T00:41:32;59.77;;;24.83;;
18748;SDS011;9503;53.560;10.246;2022-12-04T00:43:59;60.07;;;23.40;;
18748;SDS011;9503;53.560;10.246;2022-12-04T00:46:27;60.80;;;23.53;;
18748;SDS011;9503;53.560;10.246;2022-12-04T00:48:54;58.40;;;24.17;;
18748;SDS011;9503;53.560;10.246;2022-12-04T00:51:21;55.77;;;23.87;;
18748;SDS011;9503;53.560;10.246;2022-12-04T00:53:51;63.40;;;25.70;;
18748;SDS011;9503;53.560;10.246;2022-12-04T00:56:18;57.73;;;24.77;;
18748;SDS011;9503;53.560;10.246;2022-12-04T00:58:49;58.27;;;23.80;;
18748;SDS011;9503;53.560;10.246;2022-12-04T01:01:18;59.47;;;24.83;;
18748;SDS011;9503;53.560;10.246;2022-12-04T01:03:45;61.60;;;25.10;;
18748;SDS011;9503;53.560;10.246;2022-12-04T01:06:16;62.63;;;23.67;;
18748;SDS011;9503;53.560;10.246;2022-12-04T01:08:44;63.43;;;25.63;;
18748;SDS011;9503;53.560;10.246;2022-12-04T01:11:13;63.53;;;24.60;;
18748;SDS011;9503;53.560;10.246;2022-12-04T01:13:39;62.70;;;23.10;;
18748;SDS011;9503;53.560;10.246;2022-12-04T01:16:06;59.93;;;25.43;;
18748;SDS011;9503;53.560;10.246;2022-12-04T01:18:33;60.93;;;24.77;;
18748;SDS011;9503;53.560;10.246;2022-12-04T01:20:59;61.23;;;24.83;;
18748;SDS011;9503;53.560;10.246;2022-12-04T01:23:26;59.20;;;23.53;;
18748;SDS011;9503;53.560;10.246;2022-12-04T01:25:53;62.53;;;24.93;;
18748;SDS011;9503;53.560;10.246;2022-12-04T01:28:23;68.00;;;24.90;;
18748;SDS011;9503;53.560;10.246;2022-12-04T01:30:58;62.67;;;23.37;;
18748;SDS011;9503;53.560;10.246;2022-12-04T01:33:26;62.37;;;25.60;;
18748;SDS011;9503;53.560;10.246;2022-12-04T01:35:54;61.63;;;24.00;;
18748;SDS011;9503;53.560;10.246;2022-12-04T01:38:22;64.03;;;26.57;;
18748;SDS011;9503;53.560;10.246;2022-12-04T01:40:49;65.57;;;25.70;;
18748;SDS011;9503;53.560;10.246;2022-12-04T01:43:16;68.00;;;26.60;;
18748;SDS011;9503;53.560;10.246;2022-12-04T01:45:45;62.53;;;24.67;;
18748;SDS011;9503;53.560;10.246;2022-12-04T01:48:15;66.63;;;25.80;;
18748;SDS011;9503;53.560;10.246;2022-12-04T01:50:46;66.83;;;24.93;;
18748;SDS011;9503;53.560;10.246;2022-12-04T01:53:16;66.00;;;25.43;;
18748;SDS011;9503;53.560;10.246;2022-12-04T01:55:44;68.10;;;25.27;;
18748;SDS011;9503;53.560;10.246;2022-12-04T01:58:11;65.83;;;25.87;;
18748;SDS011;9503;53.560;10.246;2022-12-04T02:00:40;64.43;;;25.37;;
18748;SDS011;9503;53.560;10.246;2022-12-04T02:03:09;61.10;;;24.87;;
18748;SDS011;9503;53.560;10.246;2022-12-04T02:05:36;67.07;;;25.20;;
18748;SDS011;9503;53.560;10.246;2022-12-04T02:08:03;66.10;;;27.13;;
18748;SDS011;9503;53.560;10.246;2022-12-04T02:10:33;63.80;;;25.77;;
18748;SDS011;9503;53.560;10.246;2022-12-04T02:13:10;66.23;;;25.03;;
18748;SDS011;9503;53.560;10.246;2022-12-04T02:15:44;67.77;;;25.30;;
18748;SDS011;9503;53.560;10.246;2022-12-04T02:18:16;68.20;;;25.53;;
18748;SDS011;9503;53.560;10.246;2022-12-04T02:20:50;71.37;;;25.30;;
18748;SDS011;9503;53.560;10.246;2022-12-04T02:23:27;66.03;;;25.70;;
18748;SDS011;9503;53.560;10.246;2022-12-04T02:26:18;69.50;;;26.47;;
18748;SDS011;9503;53.560;10.246;2022-12-04T02:28:59;69.90;;;26.37;;
18748;SDS011;9503;53.560;10.246;2022-12-04T02:31:33;63.63;;;25.40;;
18748;SDS011;9503;53.560;10.246;2022-12-04T02:34:06;67.00;;;26.63;;
18748;SDS011;9503;53.560;10.246;2022-12-04T02:36:40;72.33;;;26.67;;
18748;SDS011;9503;53.560;10.246;2022-12-04T02:39:13;70.70;;;26.90;;
18748;SDS011;9503;53.560;10.246;2022-12-04T02:41:47;76.13;;;26.90;;
18748;SDS011;9503;53.560;10.246;2022-12-04T02:44:22;72.03;;;25.60;;
18748;SDS011;9503;53.560;10.246;2022-12-04T02:46:55;72.13;;;27.10;;
18748;SDS011;9503;53.560;10.246;2022-12-04T02:49:27;72.33;;;27.73;;
18748;SDS011;9503;53.560;10.246;2022-12-04T02:51:57;63.27;;;24.43;;
18748;SDS011;9503;53.560;10.246;2022-12-04T02:54:26;67.80;;;25.27;;
18748;SDS011;9503;53.560;10.246;2022-12-04T02:56:58;72.50;;;26.03;;
18748;SDS011;9503;53.560;10.246;2022-12-04T02:59:29;67.40;;;25.73;;
18748;SDS011;9503;53.560;10.246;2022-12-04T03:02:00;74.10;;;26.13;;
18748;SDS011;9503;53.560;10.246;2022-12-04T03:04:32;66.43;;;26.20;;
18748;SDS011;9503;53.560;10.246;2022-12-04T03:07:01;71.97;;;27.37;;
18748;SDS011;9503;53.560;10.246;2022-12-04T03:09:32;69.17;;;25.87;;
18748;SDS011;9503;53.560;10.246;2022-12-04T03:12:04;70.13;;;25.73;;
18748;SDS011;9503;53.560;10.246;2022-12-04T03:14:38;71.80;;;26.07;;
18748;SDS011;9503;53.560;10.246;2022-12-04T03:17:08;65.83;;;25.47;;
18748;SDS011;9503;53.560;10.246;2022-12-04T03:19:40;75.03;;;27.87;;
18748;SDS011;9503;53.560;10.246;2022-12-04T03:22:12;65.37;;;24.70;;
18748;SDS011;9503;53.560;10.246;2022-12-04T03:24:42;62.07;;;24.00;;
18748;SDS011;9503;53.560;10.246;2022-12-04T03:27:13;75.53;;;28.03;;
18748;SDS011;9503;53.560;10.246;2022-12-04T03:29:51;76.80;;;29.33;;
18748;SDS011;9503;53.560;10.246;2022-12-04T03:32:23;73.63;;;27.77;;
18748;SDS011;9503;53.560;10.246;2022-12-04T03:34:53;78.07;;;28.87;;
18748;SDS011;9503;53.560;10.246;2022-12-04T03:37:23;71.53;;;27.93;;
18748;SDS011;9503;53.560;10.246;2022-12-04T03:39:57;68.77;;;26.13;;
18748;SDS011;9503;53.560;10.246;2022-12-04T03:42:32;72.93;;;26.93;;
18748;SDS011;9503;53.560;10.246;2022-12-04T03:45:06;69.63;;;26.53;;
18748;SDS011;9503;53.560;10.246;2022-12-04T03:47:40;66.67;;;25.33;;
18748;SDS011;9503;53.560;10.246;2022-12-04T03:50:12;64.77;;;24.93;;
18748;SDS011;9503;53.560;10.246;2022-12-04T03:52:44;62.10;;;24.73;;
18748;SDS011;9503;53.560;10.246;2022-12-04T03:55:17;59.37;;;24.03;;
18748;SDS011;9503;53.560;10.246;2022-12-04T03:57:50;67.30;;;25.17;;
18748;SDS011;9503;53.560;10.246;2022-12-04T04:00:23;63.53;;;25.20;;
18748;SDS011;9503;53.560;10.246;2022-12-04T04:02:51;65.23;;;25.60;;
18748;SDS011;9503;53.560;10.246;2022-12-04T04:05:23;60.20;;;23.60;;
18748;SDS011;9503;53.560;10.246;2022-12-04T04:07:53;67.60;;;25.60;;
18748;SDS011;9503;53.560;10.246;2022-12-04T04:10:42;55.17;;;24.37;;
18748;SDS011;9503;53.560;10.246;2022-12-04T04:13:10;63.27;;;25.23;;
18748;SDS011;9503;53.560;10.246;2022-12-04T04:16:01;60.80;;;25.27;;
18748;SDS011;9503;53.560;10.246;2022-12-04T04:18:48;60.40;;;22.60;;
18748;SDS011;9503;53.560;10.246;2022-12-04T04:21:34;63.80;;;23.57;;
18748;SDS011;9503;53.560;10.246;2022-12-04T04:24:25;62.47;;;24.77;;
18748;SDS011;9503;53.560;10.246;2022-12-04T04:26:54;65.23;;;25.23;;
18748;SDS011;9503;53.560;10.246;2022-12-04T04:29:23;62.10;;;24.47;;
18748;SDS011;9503;53.560;10.246;2022-12-04T04:31:53;66.37;;;26.10;;
18748;SDS011;9503;53.560;10.246;2022-12-04T04:34:27;69.93;;;26.27;;
18748;SDS011;9503;53.560;10.246;2022-12-04T04:37:02;66.33;;;24.67;;
18748;SDS011;9503;53.560;10.246;2022-12-04T04:39:35;74.57;;;26.43;;
18748;SDS011;9503;53.560;10.246;2022-12-04T04:42:10;69.13;;;26.30;;
18748;SDS011;9503;53.560;10.246;2022-12-04T04:44:46;62.70;;;24.67;;
18748;SDS011;9503;53.560;10.246;2022-12-04T04:47:20;63.73;;;25.30;;
18748;SDS011;9503;53.560;10.246;2022-12-04T04:49:54;67.07;;;24.93;;
18748;SDS011;9503;53.560;10.246;2022-12-04T04:52:22;67.47;;;25.87;;
18748;SDS011;9503;53.560;10.246;2022-12-04T04:54:49;74.53;;;25.77;;
18748;SDS011;9503;53.560;10.246;2022-12-04T04:57:24;71.27;;;25.43;;
18748;SDS011;9503;53.560;10.246;2022-12-04T04:59:51;65.10;;;26.17;;
18748;SDS011;9503;53.560;10.246;2022-12-04T05:02:19;67.70;;;26.47;;
18748;SDS011;9503;53.560;10.246;2022-12-04T05:04:47;62.20;;;25.63;;
18748;SDS011;9503;53.560;10.246;2022-12-04T05:07:13;68.17;;;25.50;;
18748;SDS011;9503;53.560;10.246;2022-12-04T05:09:40;66.30;;;27.33;;
18748;SDS011;9503;53.560;10.246;2022-12-04T05:12:07;71.93;;;25.10;;
18748;SDS011;9503;53.560;10.246;2022-12-04T05:14:34;67.03;;;25.63;;
18748;SDS011;9503;53.560;10.246;2022-12-04T05:17:00;67.80;;;25.03;;
18748;SDS011;9503;53.560;10.246;2022-12-04T05:19:32;68.03;;;25.87;;
18748;SDS011;9503;53.560;10.246;2022-12-04T05:22:16;66.90;;;26.60;;
18748;SDS011;9503;53.560;10.246;2022-12-04T05:24:43;63.73;;;26.07;;
18748;SDS011;9503;53.560;10.246;2022-12-04T05:27:10;66.60;;;24.63;;
18748;SDS011;9503;53.560;10.246;2022-12-04T05:29:36;70.43;;;26.90;;
18748;SDS011;9503;53.560;10.246;2022-12-04T05:32:03;68.60;;;27.07;;
18748;SDS011;9503;53.560;10.246;2022-12-04T05:34:31;70.37;;;27.43;;
18748;SDS011;9503;53.560;10.246;2022-12-04T05:36:58;65.43;;;26.17;;
18748;SDS011;9503;53.560;10.246;2022-12-04T05:39:25;76.07;;;29.90;;
18748;SDS011;9503;53.560;10.246;2022-12-04T05:41:51;69.03;;;26.70;;
18748;SDS011;9503;53.560;10.246;2022-12-04T05:44:18;72.57;;;27.27;;
18748;SDS011;9503;53.560;10.246;2022-12-04T05:46:44;71.53;;;26.97;;
18748;SDS011;9503;53.560;10.246;2022-12-04T05:49:11;73.70;;;28.13;;
18748;SDS011;9503;53.560;10.246;2022-12-04T05:51:39;62.17;;;25.87;;
18748;SDS011;9503;53.560;10.246;2022-12-04T05:54:06;71.17;;;26.83;;
18748;SDS011;9503;53.560;10.246;2022-12-04T05:56:32;77.57;;;26.93;;
18748;SDS011;9503;53.560;10.246;2022-12-04T05:58:59;71.30;;;28.17;;
18748;SDS011;9503;53.560;10.246;2022-12-04T06:01:26;70.60;;;26.63;;
18748;SDS011;9503;53.560;10.246;2022-12-04T06:03:52;75.70;;;28.13;;
18748;SDS011;9503;53.560;10.246;2022-12-04T06:06:20;76.33;;;28.27;;
18748;SDS011;9503;53.560;10.246;2022-12-04T06:08:50;68.73;;;27.20;;
18748;SDS011;9503;53.560;10.246;2022-12-04T06:11:19;70.13;;;27.87;;
18748;SDS011;9503;53.560;10.246;2022-12-04T06:13:48;75.90;;;27.60;;
18748;SDS011;9503;53.560;10.246;2022-12-04T06:16:16;71.60;;;28.00;;
18748;SDS011;9503;53.560;10.246;2022-12-04T06:18:44;72.87;;;28.53;;
18748;SDS011;9503;53.560;10.246;2022-12-04T06:21:14;73.03;;;27.87;;
18748;SDS011;9503;53.560;10.246;2022-12-04T06:23:41;79.53;;;28.27;;
18748;SDS011;9503;53.560;10.246;2022-12-04T06:26:09;72.37;;;27.10;;
18748;SDS011;9503;53.560;10.246;2022-12-04T06:28:36;80.73;;;28.60;;
18748;SDS011;9503;53.560;10.246;2022-12-04T06:31:03;80.17;;;29.00;;
18748;SDS011;9503;53.560;10.246;2022-12-04T06:33:32;80.30;;;28.93;;
18748;SDS011;9503;53.560;10.246;2022-12-04T06:36:03;79.40;;;30.10;;
18748;SDS011;9503;53.560;10.246;2022-12-04T06:40:58;78.20;;;29.13;;
18748;SDS011;9503;53.560;10.246;2022-12-04T06:43:29;80.00;;;30.50;;
18748;SDS011;9503;53.560;10.246;2022-12-04T06:45:59;78.13;;;28.50;;
18748;SDS011;9503;53.560;10.246;2022-12-04T06:48:26;84.47;;;29.13;;
18748;SDS011;9503;53.560;10.246;2022-12-04T06:50:56;89.47;;;29.57;;
18748;SDS011;9503;53.560;10.246;2022-12-04T06:53:24;85.47;;;29.20;;
18748;SDS011;9503;53.560;10.246;2022-12-04T06:55:54;81.87;;;29.53;;
18748;SDS011;9503;53.560;10.246;2022-12-04T06:58:21;76.73;;;30.00;;
18748;SDS011;9503;53.560;10.246;2022-12-04T07:00:49;81.67;;;30.40;;
18748;SDS011;9503;53.560;10.246;2022-12-04T07:03:16;83.67;;;30.87;;
18748;SDS011;9503;53.560;10.246;2022-12-04T07:05:42;81.73;;;29.00;;
18748;SDS011;9503;53.560;10.246;2022-12-04T07:08:09;75.90;;;29.90;;
18748;SDS011;9503;53.560;10.246;2022-12-04T07:10:36;79.03;;;29.43;;
18748;SDS011;9503;53.560;10.246;2022-12-04T07:13:03;75.00;;;28.30;;
18748;SDS011;9503;53.560;10.246;2022-12-04T07:15:31;83.20;;;30.67;;
18748;SDS011;9503;53.560;10.246;2022-12-04T07:18:00;84.73;;;29.23;;
18748;SDS011;9503;53.560;10.246;2022-12-04T07:20:28;81.90;;;29.70;;
18748;SDS011;9503;53.560;10.246;2022-12-04T07:22:54;76.90;;;29.13;;
18748;SDS011;9503;53.560;10.246;2022-12-04T07:25:21;83.10;;;29.53;;
18748;SDS011;9503;53.560;10.246;2022-12-04T07:27:48;77.87;;;28.30;;
18748;SDS011;9503;53.560;10.246;2022-12-04T07:30:15;84.03;;;29.47;;
18748;SDS011;9503;53.560;10.246;2022-12-04T07:32:42;80.60;;;29.33;;
18748;SDS011;9503;53.560;10.246;2022-12-04T07:35:10;77.93;;;29.90;;
18748;SDS011;9503;53.560;10.246;2022-12-04T07:37:36;81.57;;;30.43;;
18748;SDS011;9503;53.560;10.246;2022-12-04T07:40:03;73.23;;;29.40;;
18748;SDS011;9503;53.560;10.246;2022-12-04T07:42:31;87.80;;;29.57;;
18748;SDS011;9503;53.560;10.246;2022-12-04T07:44:58;82.50;;;28.53;;
18748;SDS011;9503;53.560;10.246;2022-12-04T07:47:24;79.47;;;29.47;;
18748;SDS011;9503;53.560;10.246;2022-12-04T07:49:51;79.27;;;30.13;;
18748;SDS011;9503;53.560;10.246;2022-12-04T07:52:19;76.27;;;28.60;;
18748;SDS011;9503;53.560;10.246;2022-12-04T07:54:45;81.90;;;29.90;;
18748;SDS011;9503;53.560;10.246;2022-12-04T07:57:12;81.67;;;29.30;;
18748;SDS011;9503;53.560;10.246;2022-12-04T07:59:39;84.13;;;29.17;;
18748;SDS011;9503;53.560;10.246;2022-12-04T08:02:06;83.67;;;29.70;;
18748;SDS011;9503;53.560;10.246;2022-12-04T08:04:32;78.83;;;28.13;;
18748;SDS011;9503;53.560;10.246;2022-12-04T08:06:59;79.17;;;28.60;;
18748;SDS011;9503;53.560;10.246;2022-12-04T08:09:27;76.87;;;28.73;;
18748;SDS011;9503;53.560;10.246;2022-12-04T08:11:54;96.00;;;31.23;;
18748;SDS011;9503;53.560;10.246;2022-12-04T08:14:20;87.83;;;30.27;;
18748;SDS011;9503;53.560;10.246;2022-12-04T08:16:47;92.47;;;30.47;;
18748;SDS011;9503;53.560;10.246;2022-12-04T08:19:14;82.30;;;30.20;;
18748;SDS011;9503;53.560;10.246;2022-12-04T08:21:41;83.00;;;28.87;;
18748;SDS011;9503;53.560;10.246;2022-12-04T08:24:08;80.10;;;31.03;;
18748;SDS011;9503;53.560;10.246;2022-12-04T08:26:36;76.10;;;30.20;;
18748;SDS011;9503;53.560;10.246;2022-12-04T08:29:02;76.80;;;30.93;;
18748;SDS011;9503;53.560;10.246;2022-12-04T08:31:31;83.80;;;30.90;;
18748;SDS011;9503;53.560;10.246;2022-12-04T08:33:59;84.30;;;29.93;;
18748;SDS011;9503;53.560;10.246;2022-12-04T08:36:27;83.70;;;30.13;;
18748;SDS011;9503;53.560;10.246;2022-12-04T08:38:54;85.83;;;31.97;;
18748;SDS011;9503;53.560;10.246;2022-12-04T08:41:22;84.73;;;30.50;;
18748;SDS011;9503;53.560;10.246;2022-12-04T08:43:52;74.20;;;28.27;;
18748;SDS011;9503;53.560;10.246;2022-12-04T08:46:20;75.77;;;29.37;;
18748;SDS011;9503;53.560;10.246;2022-12-04T08:48:47;69.43;;;27.47;;
18748;SDS011;9503;53.560;10.246;2022-12-04T08:51:14;78.27;;;30.30;;
18748;SDS011;9503;53.560;10.246;2022-12-04T08:53:43;71.33;;;28.13;;
18748;SDS011;9503;53.560;10.246;2022-12-04T08:56:10;75.77;;;28.80;;
18748;SDS011;9503;53.560;10.246;2022-12-04T08:58:37;80.70;;;30.17;;
18748;SDS011;9503;53.560;10.246;2022-12-04T09:01:06;67.97;;;27.30;;
18748;SDS011;9503;53.560;10.246;2022-12-04T09:03:34;74.40;;;28.17;;
18748;SDS011;9503;53.560;10.246;2022-12-04T09:06:01;74.83;;;29.00;;
18748;SDS011;9503;53.560;10.246;2022-12-04T09:08:29;66.03;;;28.17;;
18748;SDS011;9503;53.560;10.246;2022-12-04T09:11:01;69.80;;;28.87;;
18748;SDS011;9503;53.560;10.246;2022-12-04T09:13:28;67.57;;;27.80;;
18748;SDS011;9503;53.560;10.246;2022-12-04T09:15:55;73.73;;;27.43;;
18748;SDS011;9503;53.560;10.246;2022-12-04T09:18:23;69.17;;;27.60;;
18748;SDS011;9503;53.560;10.246;2022-12-04T09:20:53;64.60;;;25.13;;
18748;SDS011;9503;53.560;10.246;2022-12-04T09:23:21;65.17;;;27.17;;
18748;SDS011;9503;53.560;10.246;2022-12-04T09:25:47;74.93;;;26.87;;
18748;SDS011;9503;53.560;10.246;2022-12-04T09:28:14;66.57;;;25.57;;
18748;SDS011;9503;53.560;10.246;2022-12-04T09:30:41;62.57;;;25.77;;
18748;SDS011;9503;53.560;10.246;2022-12-04T09:33:07;68.53;;;26.93;;
18748;SDS011;9503;53.560;10.246;2022-12-04T09:35:35;62.37;;;25.70;;
18748;SDS011;9503;53.560;10.246;2022-12-04T09:38:03;62.33;;;26.47;;
18748;SDS011;9503;53.560;10.246;2022-12-04T09:40:32;68.23;;;26.93;;
18748;SDS011;9503;53.560;10.246;2022-12-04T09:43:05;71.27;;;27.30;;
18748;SDS011;9503;53.560;10.246;2022-12-04T09:45:41;61.87;;;27.13;;
18748;SDS011;9503;53.560;10.246;2022-12-04T09:48:12;64.43;;;25.27;;
18748;SDS011;9503;53.560;10.246;2022-12-04T09:50:44;62.47;;;24.83;;
18748;SDS011;9503;53.560;10.246;2022-12-04T09:53:16;62.30;;;25.67;;
18748;SDS011;9503;53.560;10.246;2022-12-04T09:55:46;54.67;;;24.10;;
18748;SDS011;9503;53.560;10.246;2022-12-04T09:58:20;57.80;;;24.67;;
18748;SDS011;9503;53.560;10.246;2022-12-04T10:00:50;57.17;;;24.77;;
18748;SDS011;9503;53.560;10.246;2022-12-04T10:03:19;55.63;;;23.17;;
18748;SDS011;9503;53.560;10.246;2022-12-04T10:05:53;59.23;;;26.00;;
18748;SDS011;9503;53.560;10.246;2022-12-04T10:08:30;56.00;;;23.17;;
18748;SDS011;9503;53.560;10.246;2022-12-04T10:11:03;58.37;;;24.13;;
18748;SDS011;9503;53.560;10.246;2022-12-04T10:13:41;55.57;;;24.17;;
18748;SDS011;9503;53.560;10.246;2022-12-04T10:16:18;61.70;;;25.23;;
18748;SDS011;9503;53.560;10.246;2022-12-04T10:18:50;60.07;;;25.43;;
18748;SDS011;9503;53.560;10.246;2022-12-04T10:21:33;52.90;;;22.90;;
18748;SDS011;9503;53.560;10.246;2022-12-04T10:24:15;61.17;;;25.13;;
18748;SDS011;9503;53.560;10.246;2022-12-04T10:26:53;56.63;;;23.63;;
18748;SDS011;9503;53.560;10.246;2022-12-04T10:29:23;58.77;;;23.90;;
18748;SDS011;9503;53.560;10.246;2022-12-04T10:31:56;63.97;;;27.87;;
18748;SDS011;9503;53.560;10.246;2022-12-04T10:34:28;56.03;;;23.73;;
18748;SDS011;9503;53.560;10.246;2022-12-04T10:36:59;58.77;;;24.17;;
18748;SDS011;9503;53.560;10.246;2022-12-04T10:39:30;54.77;;;23.97;;
18748;SDS011;9503;53.560;10.246;2022-12-04T10:42:02;57.70;;;24.63;;
18748;SDS011;9503;53.560;10.246;2022-12-04T10:44:37;61.63;;;25.87;;
18748;SDS011;9503;53.560;10.246;2022-12-04T10:47:04;60.13;;;25.80;;
18748;SDS011;9503;53.560;10.246;2022-12-04T10:49:32;59.93;;;24.80;;
18748;SDS011;9503;53.560;10.246;2022-12-04T10:52:02;61.13;;;25.77;;
18748;SDS011;9503;53.560;10.246;2022-12-04T10:54:30;56.40;;;25.07;;
18748;SDS011;9503;53.560;10.246;2022-12-04T10:56:58;67.10;;;26.17;;
18748;SDS011;9503;53.560;10.246;2022-12-04T10:59:26;58.63;;;25.50;;
18748;SDS011;9503;53.560;10.246;2022-12-04T11:01:58;64.53;;;26.10;;
18748;SDS011;9503;53.560;10.246;2022-12-04T11:04:28;55.17;;;22.93;;
18748;SDS011;9503;53.560;10.246;2022-12-04T11:07:02;56.57;;;24.20;;
18748;SDS011;9503;53.560;10.246;2022-12-04T11:09:29;58.77;;;24.53;;
18748;SDS011;9503;53.560;10.246;2022-12-04T11:12:03;62.80;;;24.20;;
18748;SDS011;9503;53.560;10.246;2022-12-04T11:14:31;55.70;;;23.60;;
18748;SDS011;9503;53.560;10.246;2022-12-04T11:16:59;60.47;;;24.33;;
18748;SDS011;9503;53.560;10.246;2022-12-04T11:19:28;58.67;;;24.03;;
18748;SDS011;9503;53.560;10.246;2022-12-04T11:21:57;64.03;;;26.50;;
18748;SDS011;9503;53.560;10.246;2022-12-04T11:24:31;60.40;;;24.73;;
18748;SDS011;9503;53.560;10.246;2022-12-04T11:26:59;65.13;;;24.80;;
18748;SDS011;9503;53.560;10.246;2022-12-04T11:29:28;58.93;;;24.63;;
18748;SDS011;9503;53.560;10.246;2022-12-04T11:31:58;58.60;;;24.50;;
18748;SDS011;9503;53.560;10.246;2022-12-04T11:34:27;60.37;;;24.83;;
18748;SDS011;9503;53.560;10.246;2022-12-04T11:36:59;58.17;;;25.40;;
18748;SDS011;9503;53.560;10.246;2022-12-04T11:39:27;58.20;;;24.50;;
18748;SDS011;9503;53.560;10.246;2022-12-04T11:42:00;56.80;;;26.03;;
18748;SDS011;9503;53.560;10.246;2022-12-04T11:44:29;57.77;;;23.70;;
18748;SDS011;9503;53.560;10.246;2022-12-04T11:46:59;66.23;;;25.90;;
18748;SDS011;9503;53.560;10.246;2022-12-04T11:49:27;65.53;;;27.70;;
18748;SDS011;9503;53.560;10.246;2022-12-04T11:51:57;54.37;;;25.80;;
18748;SDS011;9503;53.560;10.246;2022-12-04T11:54:36;53.03;;;23.70;;
18748;SDS011;9503;53.560;10.246;2022-12-04T11:57:12;56.87;;;24.70;;
18748;SDS011;9503;53.560;10.246;2022-12-04T11:59:47;53.83;;;23.07;;
18748;SDS011;9503;53.560;10.246;2022-12-04T12:02:45;54.97;;;23.50;;
18748;SDS011;9503;53.560;10.246;2022-12-04T12:05:35;58.70;;;24.87;;
18748;SDS011;9503;53.560;10.246;2022-12-04T12:08:11;67.83;;;26.70;;
18748;SDS011;9503;53.560;10.246;2022-12-04T12:10:47;59.33;;;25.23;;
18748;SDS011;9503;53.560;10.246;2022-12-04T12:13:25;58.33;;;24.13;;
18748;SDS011;9503;53.560;10.246;2022-12-04T12:15:59;57.13;;;25.07;;
18748;SDS011;9503;53.560;10.246;2022-12-04T12:18:44;59.37;;;25.93;;
18748;SDS011;9503;53.560;10.246;2022-12-04T12:21:34;51.93;;;23.77;;
18748;SDS011;9503;53.560;10.246;2022-12-04T12:24:08;57.40;;;25.13;;
18748;SDS011;9503;53.560;10.246;2022-12-04T12:26:52;58.50;;;24.27;;
18748;SDS011;9503;53.560;10.246;2022-12-04T12:29:34;48.57;;;21.20;;
18748;SDS011;9503;53.560;10.246;2022-12-04T12:32:16;56.33;;;24.27;;
18748;SDS011;9503;53.560;10.246;2022-12-04T12:34:54;52.60;;;23.83;;
18748;SDS011;9503;53.560;10.246;2022-12-04T12:37:22;61.37;;;25.47;;
18748;SDS011;9503;53.560;10.246;2022-12-04T12:39:55;58.90;;;24.13;;
18748;SDS011;9503;53.560;10.246;2022-12-04T12:42:30;58.77;;;24.43;;
18748;SDS011;9503;53.560;10.246;2022-12-04T12:45:03;58.30;;;25.03;;
18748;SDS011;9503;53.560;10.246;2022-12-04T12:47:38;57.90;;;24.70;;
18748;SDS011;9503;53.560;10.246;2022-12-04T12:50:09;59.20;;;25.40;;
18748;SDS011;9503;53.560;10.246;2022-12-04T12:52:41;75.57;;;29.37;;
18748;SDS011;9503;53.560;10.246;2022-12-04T12:55:12;56.83;;;26.23;;
18748;SDS011;9503;53.560;10.246;2022-12-04T12:57:42;58.30;;;25.33;;
18748;SDS011;9503;53.560;10.246;2022-12-04T13:00:15;57.10;;;23.37;;
18748;SDS011;9503;53.560;10.246;2022-12-04T13:02:44;57.60;;;24.43;;
18748;SDS011;9503;53.560;10.246;2022-12-04T13:05:15;50.47;;;23.07;;
18748;SDS011;9503;53.560;10.246;2022-12-04T13:07:48;51.67;;;22.47;;
18748;SDS011;9503;53.560;10.246;2022-12-04T13:10:21;54.30;;;24.40;;
18748;SDS011;9503;53.560;10.246;2022-12-04T13:12:52;54.60;;;23.73;;
18748;SDS011;9503;53.560;10.246;2022-12-04T13:15:25;53.63;;;22.50;;
18748;SDS011;9503;53.560;10.246;2022-12-04T13:18:00;52.30;;;22.60;;
18748;SDS011;9503;53.560;10.246;2022-12-04T13:20:29;51.27;;;22.67;;
18748;SDS011;9503;53.560;10.246;2022-12-04T13:23:05;51.20;;;23.50;;
18748;SDS011;9503;53.560;10.246;2022-12-04T13:25:46;51.20;;;22.70;;
18748;SDS011;9503;53.560;10.246;2022-12-04T13:28:25;57.63;;;22.60;;
18748;SDS011;9503;53.560;10.246;2022-12-04T13:31:05;51.67;;;22.53;;
18748;SDS011;9503;53.560;10.246;2022-12-04T13:33:48;52.00;;;22.27;;
18748;SDS011;9503;53.560;10.246;2022-12-04T13:36:44;51.00;;;21.87;;
18748;SDS011;9503;53.560;10.246;2022-12-04T13:39:29;47.60;;;21.87;;
18748;SDS011;9503;53.560;10.246;2022-12-04T13:42:17;47.30;;;22.77;;
18748;SDS011;9503;53.560;10.246;2022-12-04T13:44:51;48.27;;;21.67;;
18748;SDS011;9503;53.560;10.246;2022-12-04T13:47:25;54.73;;;22.33;;
18748;SDS011;9503;53.560;10.246;2022-12-04T13:50:04;49.37;;;21.20;;
18748;SDS011;9503;53.560;10.246;2022-12-04T13:52:37;46.23;;;20.83;;
18748;SDS011;9503;53.560;10.246;2022-12-04T13:55:21;48.47;;;20.83;;
18748;SDS011;9503;53.560;10.246;2022-12-04T13:57:52;47.17;;;21.40;;
18748;SDS011;9503;53.560;10.246;2022-12-04T14:00:23;48.60;;;22.03;;
18748;SDS011;9503;53.560;10.246;2022-12-04T14:02:55;50.83;;;22.73;;
18748;SDS011;9503;53.560;10.246;2022-12-04T14:05:24;52.30;;;22.87;;
18748;SDS011;9503;53.560;10.246;2022-12-04T14:08:00;58.83;;;23.40;;
18748;SDS011;9503;53.560;10.246;2022-12-04T14:10:31;54.07;;;22.93;;
18748;SDS011;9503;53.560;10.246;2022-12-04T14:13:01;56.23;;;23.80;;
18748;SDS011;9503;53.560;10.246;2022-12-04T14:15:30;56.90;;;23.80;;
18748;SDS011;9503;53.560;10.246;2022-12-04T14:18:00;54.10;;;23.30;;
18748;SDS011;9503;53.560;10.246;2022-12-04T14:20:29;60.20;;;25.23;;
18748;SDS011;9503;53.560;10.246;2022-12-04T14:23:06;55.90;;;24.53;;
18748;SDS011;9503;53.560;10.246;2022-12-04T14:25:34;57.70;;;24.30;;
18748;SDS011;9503;53.560;10.246;2022-12-04T14:31:01;55.97;;;24.13;;
18748;SDS011;9503;53.560;10.246;2022-12-04T14:33:41;58.83;;;24.50;;
18748;SDS011;9503;53.560;10.246;2022-12-04T14:36:15;65.73;;;27.43;;
18748;SDS011;9503;53.560;10.246;2022-12-04T14:38:44;58.03;;;24.20;;
18748;SDS011;9503;53.560;10.246;2022-12-04T14:41:12;58.47;;;25.63;;
18748;SDS011;9503;53.560;10.246;2022-12-04T14:43:48;62.27;;;25.73;;
18748;SDS011;9503;53.560;10.246;2022-12-04T14:46:17;63.63;;;25.60;;
18748;SDS011;9503;53.560;10.246;2022-12-04T14:48:54;55.97;;;24.67;;